sensor_id;sensor_type;location;lat;lon;timestamp;P1;durP1;ratioP1;P2;durP2;ratioP2
20318;SDS011;10317;47.254;11.314;2023-05-07T00:02:06;5.68;;;4.00;;
20318;SDS011;10317;47.254;11.314;2023-05-07T00:04:32;3.67;;;3.47;;
20318;SDS011;10317;47.254;11.314;2023-05-07T00:07:01;4.30;;;3.88;;
20318;SDS011;10317;47.254;11.314;2023-05-07T00:09:27;4.40;;;3.67;;
20318;SDS011;10317;47.254;11.314;2023-05-07T00:11:53;4.13;;;3.75;;
20318;SDS011;10317;47.254;11.314;2023-05-07T00:14:19;3.83;;;3.30;;
20318;SDS011;10317;47.254;11.314;2023-05-07T00:16:45;6.03;;;3.75;;
20318;SDS011;10317;47.254;11.314;2023-05-07T00:19:10;3.85;;;3.55;;
20318;SDS011;10317;47.254;11.314;2023-05-07T00:21:36;4.15;;;3.25;;
20318;SDS011;10317;47.254;11.314;2023-05-07T00:24:02;4.35;;;3.92;;
20318;SDS011;10317;47.254;11.314;2023-05-07T00:26:28;3.58;;;3.28;;
20318;SDS011;10317;47.254;11.314;2023-05-07T00:28:54;4.07;;;3.78;;
20318;SDS011;10317;47.254;11.314;2023-05-07T00:31:19;3.92;;;3.55;;
20318;SDS011;10317;47.254;11.314;2023-05-07T00:33:45;4.43;;;3.50;;
20318;SDS011;10317;47.254;11.314;2023-05-07T00:36:11;5.82;;;4.57;;
20318;SDS011;10317;47.254;11.314;2023-05-07T00:38:37;4.00;;;3.60;;
20318;SDS011;10317;47.254;11.314;2023-05-07T00:41:02;4.07;;;3.78;;
20318;SDS011;10317;47.254;11.314;2023-05-07T00:43:28;4.20;;;3.90;;
20318;SDS011;10317;47.254;11.314;2023-05-07T00:45:54;6.68;;;3.90;;
20318;SDS011;10317;47.254;11.314;2023-05-07T00:48:20;4.45;;;4.13;;
20318;SDS011;10317;47.254;11.314;2023-05-07T00:50:46;3.95;;;3.65;;
20318;SDS011;10317;47.254;11.314;2023-05-07T00:53:13;4.38;;;3.28;;
20318;SDS011;10317;47.254;11.314;2023-05-07T00:55:39;3.95;;;3.75;;
20318;SDS011;10317;47.254;11.314;2023-05-07T00:58:05;4.68;;;4.00;;
20318;SDS011;10317;47.254;11.314;2023-05-07T01:00:31;5.68;;;4.18;;
20318;SDS011;10317;47.254;11.314;2023-05-07T01:02:57;3.78;;;3.38;;
20318;SDS011;10317;47.254;11.314;2023-05-07T01:05:23;3.42;;;3.22;;
20318;SDS011;10317;47.254;11.314;2023-05-07T01:07:51;4.43;;;3.70;;
20318;SDS011;10317;47.254;11.314;2023-05-07T01:10:19;4.00;;;3.70;;
20318;SDS011;10317;47.254;11.314;2023-05-07T01:12:45;4.22;;;3.92;;
20318;SDS011;10317;47.254;11.314;2023-05-07T01:15:13;4.18;;;3.88;;
20318;SDS011;10317;47.254;11.314;2023-05-07T01:17:39;3.65;;;3.40;;
20318;SDS011;10317;47.254;11.314;2023-05-07T01:20:06;4.13;;;3.70;;
20318;SDS011;10317;47.254;11.314;2023-05-07T01:22:33;4.90;;;3.75;;
20318;SDS011;10317;47.254;11.314;2023-05-07T01:25:02;4.70;;;3.35;;
20318;SDS011;10317;47.254;11.314;2023-05-07T01:27:32;4.47;;;3.75;;
20318;SDS011;10317;47.254;11.314;2023-05-07T01:30:02;6.20;;;4.15;;
20318;SDS011;10317;47.254;11.314;2023-05-07T01:32:32;3.80;;;3.55;;
20318;SDS011;10317;47.254;11.314;2023-05-07T01:35:03;3.53;;;3.33;;
20318;SDS011;10317;47.254;11.314;2023-05-07T01:37:32;4.57;;;2.78;;
20318;SDS011;10317;47.254;11.314;2023-05-07T01:39:58;3.85;;;3.55;;
20318;SDS011;10317;47.254;11.314;2023-05-07T01:42:25;3.33;;;3.03;;
20318;SDS011;10317;47.254;11.314;2023-05-07T01:44:51;3.33;;;3.13;;
20318;SDS011;10317;47.254;11.314;2023-05-07T01:47:17;3.85;;;3.40;;
20318;SDS011;10317;47.254;11.314;2023-05-07T01:49:43;5.78;;;3.35;;
20318;SDS011;10317;47.254;11.314;2023-05-07T01:52:10;6.40;;;3.42;;
20318;SDS011;10317;47.254;11.314;2023-05-07T01:54:36;3.65;;;3.35;;
20318;SDS011;10317;47.254;11.314;2023-05-07T01:57:02;3.85;;;3.55;;
20318;SDS011;10317;47.254;11.314;2023-05-07T01:59:28;3.30;;;3.10;;
20318;SDS011;10317;47.254;11.314;2023-05-07T02:01:53;3.22;;;3.03;;
20318;SDS011;10317;47.254;11.314;2023-05-07T02:04:19;6.00;;;3.15;;
20318;SDS011;10317;47.254;11.314;2023-05-07T02:06:45;4.90;;;3.05;;
20318;SDS011;10317;47.254;11.314;2023-05-07T02:09:11;3.92;;;3.47;;
20318;SDS011;10317;47.254;11.314;2023-05-07T02:11:40;3.78;;;3.17;;
20318;SDS011;10317;47.254;11.314;2023-05-07T02:14:05;4.32;;;2.92;;
20318;SDS011;10317;47.254;11.314;2023-05-07T02:16:31;3.20;;;2.95;;
20318;SDS011;10317;47.254;11.314;2023-05-07T02:18:57;3.53;;;3.15;;
20318;SDS011;10317;47.254;11.314;2023-05-07T02:21:23;4.00;;;3.15;;
20318;SDS011;10317;47.254;11.314;2023-05-07T02:23:50;7.47;;;3.40;;
20318;SDS011;10317;47.254;11.314;2023-05-07T02:26:16;3.50;;;3.20;;
20318;SDS011;10317;47.254;11.314;2023-05-07T02:28:41;4.15;;;3.03;;
20318;SDS011;10317;47.254;11.314;2023-05-07T02:31:07;7.05;;;3.75;;
20318;SDS011;10317;47.254;11.314;2023-05-07T02:33:33;4.15;;;3.72;;
20318;SDS011;10317;47.254;11.314;2023-05-07T02:36:09;3.83;;;3.53;;
20318;SDS011;10317;47.254;11.314;2023-05-07T02:38:35;4.97;;;4.28;;
20318;SDS011;10317;47.254;11.314;2023-05-07T02:41:01;5.55;;;4.78;;
20318;SDS011;10317;47.254;11.314;2023-05-07T02:43:27;4.60;;;3.95;;
20318;SDS011;10317;47.254;11.314;2023-05-07T02:46:05;6.68;;;3.90;;
20318;SDS011;10317;47.254;11.314;2023-05-07T02:48:33;4.30;;;4.07;;
20318;SDS011;10317;47.254;11.314;2023-05-07T02:50:59;8.32;;;4.60;;
20318;SDS011;10317;47.254;11.314;2023-05-07T02:53:26;4.10;;;3.80;;
20318;SDS011;10317;47.254;11.314;2023-05-07T02:55:52;7.97;;;4.80;;
20318;SDS011;10317;47.254;11.314;2023-05-07T02:58:18;4.00;;;3.70;;
20318;SDS011;10317;47.254;11.314;2023-05-07T03:00:44;4.47;;;4.18;;
20318;SDS011;10317;47.254;11.314;2023-05-07T03:03:10;4.13;;;3.85;;
20318;SDS011;10317;47.254;11.314;2023-05-07T03:05:36;4.63;;;4.10;;
20318;SDS011;10317;47.254;11.314;2023-05-07T03:08:02;4.93;;;4.00;;
20318;SDS011;10317;47.254;11.314;2023-05-07T03:10:28;4.13;;;3.83;;
20318;SDS011;10317;47.254;11.314;2023-05-07T03:12:54;4.43;;;3.92;;
20318;SDS011;10317;47.254;11.314;2023-05-07T03:15:20;5.10;;;4.40;;
20318;SDS011;10317;47.254;11.314;2023-05-07T03:17:46;5.03;;;4.25;;
20318;SDS011;10317;47.254;11.314;2023-05-07T03:20:12;3.90;;;3.10;;
20318;SDS011;10317;47.254;11.314;2023-05-07T03:22:38;4.25;;;3.75;;
20318;SDS011;10317;47.254;11.314;2023-05-07T03:25:05;3.80;;;3.47;;
20318;SDS011;10317;47.254;11.314;2023-05-07T03:27:31;3.80;;;3.50;;
20318;SDS011;10317;47.254;11.314;2023-05-07T03:29:57;4.05;;;3.63;;
20318;SDS011;10317;47.254;11.314;2023-05-07T03:32:22;3.92;;;3.55;;
20318;SDS011;10317;47.254;11.314;2023-05-07T03:34:48;4.38;;;3.25;;
20318;SDS011;10317;47.254;11.314;2023-05-07T03:37:14;3.55;;;3.33;;
20318;SDS011;10317;47.254;11.314;2023-05-07T03:39:39;3.20;;;3.00;;
20318;SDS011;10317;47.254;11.314;2023-05-07T03:42:05;4.75;;;3.60;;
20318;SDS011;10317;47.254;11.314;2023-05-07T03:44:31;3.63;;;3.33;;
20318;SDS011;10317;47.254;11.314;2023-05-07T03:46:57;7.70;;;3.22;;
20318;SDS011;10317;47.254;11.314;2023-05-07T03:49:22;4.22;;;3.15;;
20318;SDS011;10317;47.254;11.314;2023-05-07T03:51:48;3.80;;;3.50;;
20318;SDS011;10317;47.254;11.314;2023-05-07T03:54:14;3.38;;;3.17;;
20318;SDS011;10317;47.254;11.314;2023-05-07T03:56:39;6.22;;;3.88;;
20318;SDS011;10317;47.254;11.314;2023-05-07T03:59:05;6.63;;;3.83;;
20318;SDS011;10317;47.254;11.314;2023-05-07T04:01:31;4.63;;;3.42;;
20318;SDS011;10317;47.254;11.314;2023-05-07T04:03:56;4.03;;;3.47;;
20318;SDS011;10317;47.254;11.314;2023-05-07T04:06:22;3.20;;;3.00;;
20318;SDS011;10317;47.254;11.314;2023-05-07T04:08:48;3.70;;;3.45;;
20318;SDS011;10317;47.254;11.314;2023-05-07T04:11:13;3.78;;;3.45;;
20318;SDS011;10317;47.254;11.314;2023-05-07T04:13:39;3.42;;;3.13;;
20318;SDS011;10317;47.254;11.314;2023-05-07T04:16:05;3.70;;;3.40;;
20318;SDS011;10317;47.254;11.314;2023-05-07T04:18:31;3.60;;;3.10;;
20318;SDS011;10317;47.254;11.314;2023-05-07T04:20:56;3.00;;;2.80;;
20318;SDS011;10317;47.254;11.314;2023-05-07T04:23:22;4.47;;;3.13;;
20318;SDS011;10317;47.254;11.314;2023-05-07T04:25:48;3.70;;;3.40;;
20318;SDS011;10317;47.254;11.314;2023-05-07T04:28:13;3.25;;;3.13;;
20318;SDS011;10317;47.254;11.314;2023-05-07T04:30:39;3.90;;;3.50;;
20318;SDS011;10317;47.254;11.314;2023-05-07T04:33:06;5.50;;;3.78;;
20318;SDS011;10317;47.254;11.314;2023-05-07T04:35:32;3.38;;;3.17;;
20318;SDS011;10317;47.254;11.314;2023-05-07T04:37:57;3.60;;;3.30;;
20318;SDS011;10317;47.254;11.314;2023-05-07T04:40:23;3.33;;;3.13;;
20318;SDS011;10317;47.254;11.314;2023-05-07T04:42:49;3.22;;;3.03;;
20318;SDS011;10317;47.254;11.314;2023-05-07T04:45:15;3.67;;;3.45;;
20318;SDS011;10317;47.254;11.314;2023-05-07T04:47:40;3.53;;;3.20;;
20318;SDS011;10317;47.254;11.314;2023-05-07T04:50:06;3.88;;;3.42;;
20318;SDS011;10317;47.254;11.314;2023-05-07T04:52:33;2.95;;;2.63;;
20318;SDS011;10317;47.254;11.314;2023-05-07T04:54:59;3.42;;;3.13;;
20318;SDS011;10317;47.254;11.314;2023-05-07T04:57:25;3.58;;;3.38;;
20318;SDS011;10317;47.254;11.314;2023-05-07T04:59:52;3.03;;;2.83;;
20318;SDS011;10317;47.254;11.314;2023-05-07T05:02:18;3.13;;;2.92;;
20318;SDS011;10317;47.254;11.314;2023-05-07T05:04:43;3.40;;;3.10;;
20318;SDS011;10317;47.254;11.314;2023-05-07T05:07:09;3.30;;;3.08;;
20318;SDS011;10317;47.254;11.314;2023-05-07T05:09:35;3.95;;;3.65;;
20318;SDS011;10317;47.254;11.314;2023-05-07T05:12:00;3.60;;;3.30;;
20318;SDS011;10317;47.254;11.314;2023-05-07T05:14:26;3.85;;;3.55;;
20318;SDS011;10317;47.254;11.314;2023-05-07T05:16:52;3.60;;;3.03;;
20318;SDS011;10317;47.254;11.314;2023-05-07T05:19:17;2.90;;;2.70;;
20318;SDS011;10317;47.254;11.314;2023-05-07T05:21:43;2.95;;;2.75;;
20318;SDS011;10317;47.254;11.314;2023-05-07T05:24:09;3.25;;;3.05;;
20318;SDS011;10317;47.254;11.314;2023-05-07T05:26:34;3.10;;;2.92;;
20318;SDS011;10317;47.254;11.314;2023-05-07T05:29:00;4.78;;;3.42;;
20318;SDS011;10317;47.254;11.314;2023-05-07T05:31:26;3.42;;;3.08;;
20318;SDS011;10317;47.254;11.314;2023-05-07T05:33:51;3.50;;;3.30;;
20318;SDS011;10317;47.254;11.314;2023-05-07T05:36:17;6.65;;;3.25;;
20318;SDS011;10317;47.254;11.314;2023-05-07T05:38:43;4.82;;;3.08;;
20318;SDS011;10317;47.254;11.314;2023-05-07T05:41:09;3.50;;;3.30;;
20318;SDS011;10317;47.254;11.314;2023-05-07T05:43:35;4.22;;;3.40;;
20318;SDS011;10317;47.254;11.314;2023-05-07T05:46:01;3.65;;;3.25;;
20318;SDS011;10317;47.254;11.314;2023-05-07T05:48:29;4.45;;;4.15;;
20318;SDS011;10317;47.254;11.314;2023-05-07T05:50:55;3.60;;;3.38;;
20318;SDS011;10317;47.254;11.314;2023-05-07T05:53:20;4.22;;;3.83;;
20318;SDS011;10317;47.254;11.314;2023-05-07T05:55:46;4.47;;;4.07;;
20318;SDS011;10317;47.254;11.314;2023-05-07T05:58:12;5.35;;;4.10;;
20318;SDS011;10317;47.254;11.314;2023-05-07T06:00:37;6.32;;;4.05;;
20318;SDS011;10317;47.254;11.314;2023-05-07T06:03:03;4.50;;;4.10;;
20318;SDS011;10317;47.254;11.314;2023-05-07T06:05:29;5.78;;;3.55;;
20318;SDS011;10317;47.254;11.314;2023-05-07T06:07:54;4.55;;;4.15;;
20318;SDS011;10317;47.254;11.314;2023-05-07T06:10:21;4.45;;;3.67;;
20318;SDS011;10317;47.254;11.314;2023-05-07T06:12:46;4.10;;;3.80;;
20318;SDS011;10317;47.254;11.314;2023-05-07T06:15:12;4.40;;;3.75;;
20318;SDS011;10317;47.254;11.314;2023-05-07T06:17:38;4.82;;;4.18;;
20318;SDS011;10317;47.254;11.314;2023-05-07T06:20:03;4.50;;;4.10;;
20318;SDS011;10317;47.254;11.314;2023-05-07T06:22:30;4.22;;;3.85;;
20318;SDS011;10317;47.254;11.314;2023-05-07T06:24:55;7.03;;;4.40;;
20318;SDS011;10317;47.254;11.314;2023-05-07T06:27:21;4.20;;;3.90;;
20318;SDS011;10317;47.254;11.314;2023-05-07T06:29:47;4.95;;;3.88;;
20318;SDS011;10317;47.254;11.314;2023-05-07T06:32:13;4.03;;;3.60;;
20318;SDS011;10317;47.254;11.314;2023-05-07T06:34:39;5.40;;;3.75;;
20318;SDS011;10317;47.254;11.314;2023-05-07T06:37:06;3.53;;;3.15;;
20318;SDS011;10317;47.254;11.314;2023-05-07T06:39:32;4.00;;;3.70;;
20318;SDS011;10317;47.254;11.314;2023-05-07T06:41:58;3.55;;;3.25;;
20318;SDS011;10317;47.254;11.314;2023-05-07T06:44:24;3.42;;;3.20;;
20318;SDS011;10317;47.254;11.314;2023-05-07T06:46:50;3.40;;;3.20;;
20318;SDS011;10317;47.254;11.314;2023-05-07T06:49:16;3.45;;;3.17;;
20318;SDS011;10317;47.254;11.314;2023-05-07T06:51:43;3.45;;;3.20;;
20318;SDS011;10317;47.254;11.314;2023-05-07T06:54:08;5.20;;;3.25;;
20318;SDS011;10317;47.254;11.314;2023-05-07T06:56:34;2.95;;;2.80;;
20318;SDS011;10317;47.254;11.314;2023-05-07T06:59:01;3.90;;;3.40;;
20318;SDS011;10317;47.254;11.314;2023-05-07T07:01:27;5.00;;;3.10;;
20318;SDS011;10317;47.254;11.314;2023-05-07T07:03:53;3.35;;;3.15;;
20318;SDS011;10317;47.254;11.314;2023-05-07T07:06:19;4.70;;;3.33;;
20318;SDS011;10317;47.254;11.314;2023-05-07T07:08:45;2.90;;;2.80;;
20318;SDS011;10317;47.254;11.314;2023-05-07T07:11:10;2.90;;;2.80;;
20318;SDS011;10317;47.254;11.314;2023-05-07T07:13:36;2.88;;;2.63;;
20318;SDS011;10317;47.254;11.314;2023-05-07T07:16:02;2.70;;;2.60;;
20318;SDS011;10317;47.254;11.314;2023-05-07T07:18:28;2.75;;;2.60;;
20318;SDS011;10317;47.254;11.314;2023-05-07T07:20:53;2.83;;;2.53;;
20318;SDS011;10317;47.254;11.314;2023-05-07T07:23:19;2.63;;;2.53;;
20318;SDS011;10317;47.254;11.314;2023-05-07T07:25:45;2.50;;;2.00;;
20318;SDS011;10317;47.254;11.314;2023-05-07T07:28:11;2.47;;;2.38;;
20318;SDS011;10317;47.254;11.314;2023-05-07T07:30:37;2.10;;;1.90;;
20318;SDS011;10317;47.254;11.314;2023-05-07T07:33:03;2.75;;;2.10;;
20318;SDS011;10317;47.254;11.314;2023-05-07T07:35:29;2.20;;;2.00;;
20318;SDS011;10317;47.254;11.314;2023-05-07T07:37:55;2.28;;;2.00;;
20318;SDS011;10317;47.254;11.314;2023-05-07T07:40:21;2.50;;;2.40;;
20318;SDS011;10317;47.254;11.314;2023-05-07T07:42:46;2.15;;;1.70;;
20318;SDS011;10317;47.254;11.314;2023-05-07T07:45:12;1.50;;;1.50;;
20318;SDS011;10317;47.254;11.314;2023-05-07T07:47:39;2.25;;;1.80;;
20318;SDS011;10317;47.254;11.314;2023-05-07T07:50:05;1.50;;;1.50;;
20318;SDS011;10317;47.254;11.314;2023-05-07T07:52:32;2.58;;;1.88;;
20318;SDS011;10317;47.254;11.314;2023-05-07T07:54:57;1.20;;;1.20;;
20318;SDS011;10317;47.254;11.314;2023-05-07T07:57:23;6.80;;;1.63;;
20318;SDS011;10317;47.254;11.314;2023-05-07T07:59:49;1.90;;;1.80;;
20318;SDS011;10317;47.254;11.314;2023-05-07T08:02:15;1.63;;;1.50;;
20318;SDS011;10317;47.254;11.314;2023-05-07T08:04:41;2.05;;;1.95;;
20318;SDS011;10317;47.254;11.314;2023-05-07T08:07:08;2.15;;;1.70;;
20318;SDS011;10317;47.254;11.314;2023-05-07T08:09:35;1.60;;;1.52;;
20318;SDS011;10317;47.254;11.314;2023-05-07T08:12:01;1.50;;;1.40;;
20318;SDS011;10317;47.254;11.314;2023-05-07T08:14:27;1.58;;;1.48;;
20318;SDS011;10317;47.254;11.314;2023-05-07T08:16:53;1.77;;;1.67;;
20318;SDS011;10317;47.254;11.314;2023-05-07T08:19:19;2.58;;;1.63;;
20318;SDS011;10317;47.254;11.314;2023-05-07T08:21:45;3.35;;;1.70;;
20318;SDS011;10317;47.254;11.314;2023-05-07T08:24:13;4.22;;;1.90;;
20318;SDS011;10317;47.254;11.314;2023-05-07T08:26:39;1.52;;;1.40;;
20318;SDS011;10317;47.254;11.314;2023-05-07T08:29:05;2.03;;;1.67;;
20318;SDS011;10317;47.254;11.314;2023-05-07T08:31:31;4.30;;;1.30;;
20318;SDS011;10317;47.254;11.314;2023-05-07T08:33:57;1.00;;;1.00;;
20318;SDS011;10317;47.254;11.314;2023-05-07T08:36:23;1.45;;;1.38;;
20318;SDS011;10317;47.254;11.314;2023-05-07T08:38:50;1.27;;;1.17;;
20318;SDS011;10317;47.254;11.314;2023-05-07T08:41:16;2.50;;;1.23;;
20318;SDS011;10317;47.254;11.314;2023-05-07T08:43:42;1.95;;;1.33;;
20318;SDS011;10317;47.254;11.314;2023-05-07T08:46:13;1.45;;;1.40;;
20318;SDS011;10317;47.254;11.314;2023-05-07T08:48:44;2.83;;;2.22;;
20318;SDS011;10317;47.254;11.314;2023-05-07T08:51:12;2.28;;;1.60;;
20318;SDS011;10317;47.254;11.314;2023-05-07T08:53:40;1.58;;;1.48;;
20318;SDS011;10317;47.254;11.314;2023-05-07T08:56:07;1.45;;;1.45;;
20318;SDS011;10317;47.254;11.314;2023-05-07T08:58:33;1.20;;;1.20;;
20318;SDS011;10317;47.254;11.314;2023-05-07T09:01:00;2.10;;;1.33;;
20318;SDS011;10317;47.254;11.314;2023-05-07T09:03:30;1.40;;;1.30;;
20318;SDS011;10317;47.254;11.314;2023-05-07T09:05:56;1.23;;;1.23;;
20318;SDS011;10317;47.254;11.314;2023-05-07T09:08:24;1.17;;;1.17;;
20318;SDS011;10317;47.254;11.314;2023-05-07T09:10:51;1.60;;;1.50;;
20318;SDS011;10317;47.254;11.314;2023-05-07T09:13:18;1.10;;;1.10;;
20318;SDS011;10317;47.254;11.314;2023-05-07T09:15:44;1.73;;;1.00;;
20318;SDS011;10317;47.254;11.314;2023-05-07T09:18:10;1.10;;;1.10;;
20318;SDS011;10317;47.254;11.314;2023-05-07T09:20:36;1.52;;;1.20;;
20318;SDS011;10317;47.254;11.314;2023-05-07T09:23:02;1.63;;;1.20;;
20318;SDS011;10317;47.254;11.314;2023-05-07T09:25:31;1.73;;;1.17;;
20318;SDS011;10317;47.254;11.314;2023-05-07T09:27:58;1.15;;;1.15;;
20318;SDS011;10317;47.254;11.314;2023-05-07T09:30:28;1.33;;;1.10;;
20318;SDS011;10317;47.254;11.314;2023-05-07T09:32:58;4.05;;;1.15;;
20318;SDS011;10317;47.254;11.314;2023-05-07T09:35:25;2.15;;;1.48;;
20318;SDS011;10317;47.254;11.314;2023-05-07T09:37:56;2.55;;;1.20;;
20318;SDS011;10317;47.254;11.314;2023-05-07T09:40:24;1.10;;;1.10;;
20318;SDS011;10317;47.254;11.314;2023-05-07T09:42:52;1.20;;;1.10;;
20318;SDS011;10317;47.254;11.314;2023-05-07T09:45:21;1.35;;;1.35;;
20318;SDS011;10317;47.254;11.314;2023-05-07T09:47:57;1.55;;;1.45;;
20318;SDS011;10317;47.254;11.314;2023-05-07T09:50:30;1.08;;;1.08;;
20318;SDS011;10317;47.254;11.314;2023-05-07T09:53:01;1.20;;;1.20;;
20318;SDS011;10317;47.254;11.314;2023-05-07T09:55:26;1.20;;;1.20;;
20318;SDS011;10317;47.254;11.314;2023-05-07T09:57:53;1.95;;;1.60;;
20318;SDS011;10317;47.254;11.314;2023-05-07T10:00:21;1.10;;;1.10;;
20318;SDS011;10317;47.254;11.314;2023-05-07T10:02:51;1.02;;;1.02;;
20318;SDS011;10317;47.254;11.314;2023-05-07T10:05:17;1.10;;;1.10;;
20318;SDS011;10317;47.254;11.314;2023-05-07T10:07:45;1.10;;;1.10;;
20318;SDS011;10317;47.254;11.314;2023-05-07T10:10:11;1.20;;;1.20;;
20318;SDS011;10317;47.254;11.314;2023-05-07T10:12:38;1.40;;;1.05;;
20318;SDS011;10317;47.254;11.314;2023-05-07T10:15:08;1.30;;;1.27;;
20318;SDS011;10317;47.254;11.314;2023-05-07T10:17:36;1.42;;;1.33;;
20318;SDS011;10317;47.254;11.314;2023-05-07T10:20:05;2.72;;;1.38;;
20318;SDS011;10317;47.254;11.314;2023-05-07T10:22:39;1.40;;;1.30;;
20318;SDS011;10317;47.254;11.314;2023-05-07T10:25:18;0.88;;;0.88;;
20318;SDS011;10317;47.254;11.314;2023-05-07T10:27:50;1.10;;;1.10;;
20318;SDS011;10317;47.254;11.314;2023-05-07T10:30:26;1.00;;;1.00;;
20318;SDS011;10317;47.254;11.314;2023-05-07T10:32:59;1.55;;;1.23;;
20318;SDS011;10317;47.254;11.314;2023-05-07T10:35:31;1.23;;;1.23;;
20318;SDS011;10317;47.254;11.314;2023-05-07T10:38:03;1.00;;;1.00;;
20318;SDS011;10317;47.254;11.314;2023-05-07T10:40:30;1.90;;;1.17;;
20318;SDS011;10317;47.254;11.314;2023-05-07T10:42:57;2.42;;;1.00;;
20318;SDS011;10317;47.254;11.314;2023-05-07T10:45:25;2.28;;;1.05;;
20318;SDS011;10317;47.254;11.314;2023-05-07T10:50:40;1.10;;;1.00;;
20318;SDS011;10317;47.254;11.314;2023-05-07T10:55:43;3.00;;;1.10;;
20318;SDS011;10317;47.254;11.314;2023-05-07T10:58:27;1.20;;;1.10;;
20318;SDS011;10317;47.254;11.314;2023-05-07T11:00:56;0.90;;;0.90;;
20318;SDS011;10317;47.254;11.314;2023-05-07T11:03:22;0.90;;;0.90;;
20318;SDS011;10317;47.254;11.314;2023-05-07T11:06:08;1.00;;;1.00;;
20318;SDS011;10317;47.254;11.314;2023-05-07T11:08:56;1.55;;;1.23;;
20318;SDS011;10317;47.254;11.314;2023-05-07T11:17:11;0.88;;;0.88;;
20318;SDS011;10317;47.254;11.314;2023-05-07T11:19:55;2.70;;;1.23;;
20318;SDS011;10317;47.254;11.314;2023-05-07T11:24:56;1.33;;;1.00;;
20318;SDS011;10317;47.254;11.314;2023-05-07T11:27:26;1.02;;;1.02;;
20318;SDS011;10317;47.254;11.314;2023-05-07T11:29:52;1.88;;;0.98;;
20318;SDS011;10317;47.254;11.314;2023-05-07T11:32:24;2.33;;;0.90;;
20318;SDS011;10317;47.254;11.314;2023-05-07T11:34:52;1.02;;;1.02;;
20318;SDS011;10317;47.254;11.314;2023-05-07T11:37:18;0.82;;;0.82;;
20318;SDS011;10317;47.254;11.314;2023-05-07T11:39:45;1.25;;;1.15;;
20318;SDS011;10317;47.254;11.314;2023-05-07T11:42:29;1.40;;;0.90;;
20318;SDS011;10317;47.254;11.314;2023-05-07T11:44:55;0.90;;;0.90;;
20318;SDS011;10317;47.254;11.314;2023-05-07T11:47:21;0.93;;;0.93;;
20318;SDS011;10317;47.254;11.314;2023-05-07T11:49:48;1.35;;;0.95;;
20318;SDS011;10317;47.254;11.314;2023-05-07T11:52:15;2.13;;;1.00;;
20318;SDS011;10317;47.254;11.314;2023-05-07T11:54:44;1.10;;;0.73;;
20318;SDS011;10317;47.254;11.314;2023-05-07T11:57:14;1.65;;;1.00;;
20318;SDS011;10317;47.254;11.314;2023-05-07T11:59:40;1.25;;;1.02;;
20318;SDS011;10317;47.254;11.314;2023-05-07T12:02:06;1.15;;;0.90;;
20318;SDS011;10317;47.254;11.314;2023-05-07T12:04:33;1.40;;;1.30;;
20318;SDS011;10317;47.254;11.314;2023-05-07T12:06:58;0.90;;;0.90;;
20318;SDS011;10317;47.254;11.314;2023-05-07T12:09:24;0.82;;;0.82;;
20318;SDS011;10317;47.254;11.314;2023-05-07T12:11:51;0.90;;;0.90;;
20318;SDS011;10317;47.254;11.314;2023-05-07T12:14:18;0.90;;;0.90;;
20318;SDS011;10317;47.254;11.314;2023-05-07T12:16:44;0.80;;;0.80;;
20318;SDS011;10317;47.254;11.314;2023-05-07T12:19:10;0.85;;;0.85;;
20318;SDS011;10317;47.254;11.314;2023-05-07T12:21:40;1.08;;;0.90;;
20318;SDS011;10317;47.254;11.314;2023-05-07T12:24:06;1.08;;;1.08;;
20318;SDS011;10317;47.254;11.314;2023-05-07T12:26:33;1.13;;;1.13;;
20318;SDS011;10317;47.254;11.314;2023-05-07T12:29:05;1.23;;;1.10;;
20318;SDS011;10317;47.254;11.314;2023-05-07T12:31:31;0.80;;;0.80;;
20318;SDS011;10317;47.254;11.314;2023-05-07T12:33:57;1.92;;;1.23;;
20318;SDS011;10317;47.254;11.314;2023-05-07T12:36:23;0.73;;;0.73;;
20318;SDS011;10317;47.254;11.314;2023-05-07T12:38:49;1.27;;;0.90;;
20318;SDS011;10317;47.254;11.314;2023-05-07T12:41:15;1.23;;;0.90;;
20318;SDS011;10317;47.254;11.314;2023-05-07T12:43:43;0.80;;;0.80;;
20318;SDS011;10317;47.254;11.314;2023-05-07T12:46:10;1.23;;;1.13;;
20318;SDS011;10317;47.254;11.314;2023-05-07T12:48:38;1.10;;;1.00;;
20318;SDS011;10317;47.254;11.314;2023-05-07T12:51:09;1.27;;;1.13;;
20318;SDS011;10317;47.254;11.314;2023-05-07T12:53:39;0.85;;;0.85;;
20318;SDS011;10317;47.254;11.314;2023-05-07T12:56:07;2.15;;;1.10;;
20318;SDS011;10317;47.254;11.314;2023-05-07T12:58:33;1.42;;;1.00;;
20318;SDS011;10317;47.254;11.314;2023-05-07T13:01:00;0.80;;;0.80;;
20318;SDS011;10317;47.254;11.314;2023-05-07T13:03:31;1.58;;;0.85;;
20318;SDS011;10317;47.254;11.314;2023-05-07T13:05:58;3.17;;;1.05;;
20318;SDS011;10317;47.254;11.314;2023-05-07T13:08:26;1.58;;;0.90;;
20318;SDS011;10317;47.254;11.314;2023-05-07T13:10:57;3.35;;;1.25;;
20318;SDS011;10317;47.254;11.314;2023-05-07T13:13:28;1.85;;;1.40;;
20318;SDS011;10317;47.254;11.314;2023-05-07T13:15:55;1.20;;;1.20;;
20318;SDS011;10317;47.254;11.314;2023-05-07T13:18:21;2.35;;;1.60;;
20318;SDS011;10317;47.254;11.314;2023-05-07T13:20:47;1.48;;;1.38;;
20318;SDS011;10317;47.254;11.314;2023-05-07T13:23:12;1.13;;;1.13;;
20318;SDS011;10317;47.254;11.314;2023-05-07T13:25:38;1.73;;;1.50;;
20318;SDS011;10317;47.254;11.314;2023-05-07T13:28:04;1.25;;;1.25;;
20318;SDS011;10317;47.254;11.314;2023-05-07T13:30:30;1.95;;;1.25;;
20318;SDS011;10317;47.254;11.314;2023-05-07T13:32:56;1.30;;;1.20;;
20318;SDS011;10317;47.254;11.314;2023-05-07T13:35:22;1.52;;;1.52;;
20318;SDS011;10317;47.254;11.314;2023-05-07T13:37:47;1.55;;;1.45;;
20318;SDS011;10317;47.254;11.314;2023-05-07T13:40:14;1.40;;;1.40;;
20318;SDS011;10317;47.254;11.314;2023-05-07T13:42:40;1.40;;;1.40;;
20318;SDS011;10317;47.254;11.314;2023-05-07T13:45:06;1.83;;;1.17;;
20318;SDS011;10317;47.254;11.314;2023-05-07T13:47:32;1.33;;;1.23;;
20318;SDS011;10317;47.254;11.314;2023-05-07T13:49:58;3.22;;;1.40;;
20318;SDS011;10317;47.254;11.314;2023-05-07T13:52:24;1.08;;;1.08;;
20318;SDS011;10317;47.254;11.314;2023-05-07T13:54:49;1.63;;;1.27;;
20318;SDS011;10317;47.254;11.314;2023-05-07T13:57:17;2.10;;;1.38;;
20318;SDS011;10317;47.254;11.314;2023-05-07T13:59:43;1.40;;;1.40;;
20318;SDS011;10317;47.254;11.314;2023-05-07T14:02:08;1.50;;;1.40;;
20318;SDS011;10317;47.254;11.314;2023-05-07T14:04:34;1.30;;;1.30;;
20318;SDS011;10317;47.254;11.314;2023-05-07T14:07:00;2.67;;;1.20;;
20318;SDS011;10317;47.254;11.314;2023-05-07T14:09:26;2.17;;;1.40;;
20318;SDS011;10317;47.254;11.314;2023-05-07T14:11:51;3.85;;;1.42;;
20318;SDS011;10317;47.254;11.314;2023-05-07T14:14:17;1.67;;;1.58;;
20318;SDS011;10317;47.254;11.314;2023-05-07T14:16:43;1.52;;;1.40;;
20318;SDS011;10317;47.254;11.314;2023-05-07T14:19:10;1.77;;;1.63;;
20318;SDS011;10317;47.254;11.314;2023-05-07T14:21:36;4.28;;;1.63;;
20318;SDS011;10317;47.254;11.314;2023-05-07T14:24:02;1.45;;;1.35;;
20318;SDS011;10317;47.254;11.314;2023-05-07T14:26:28;1.20;;;1.20;;
20318;SDS011;10317;47.254;11.314;2023-05-07T14:28:54;1.08;;;1.08;;
20318;SDS011;10317;47.254;11.314;2023-05-07T14:31:22;1.38;;;1.08;;
20318;SDS011;10317;47.254;11.314;2023-05-07T14:33:48;2.03;;;1.40;;
20318;SDS011;10317;47.254;11.314;2023-05-07T14:36:15;3.75;;;1.20;;
20318;SDS011;10317;47.254;11.314;2023-05-07T14:38:47;1.05;;;1.05;;
20318;SDS011;10317;47.254;11.314;2023-05-07T14:41:13;1.55;;;1.17;;
20318;SDS011;10317;47.254;11.314;2023-05-07T14:43:39;1.10;;;1.00;;
20318;SDS011;10317;47.254;11.314;2023-05-07T14:46:05;1.83;;;1.35;;